Weather reports worldwide

Advertisment
Le Puy, France (7471): temperature & dewpoint: 17.05.2019 14:00:00 - 23.05.2019 14:00:00 (CEST)Le Puy, France (7471): temperature 5cm: 17.05.2019 14:00:00 - 23.05.2019 14:00:00 (CEST)Le Puy, France (7471): temperature -20cm & temperature -100cm: 17.05.2019 14:00:00 - 23.05.2019 14:00:00 (CEST)Le Puy, France (7471): wind speed & gusts: 17.05.2019 14:00:00 - 23.05.2019 14:00:00 (CEST)Le Puy, France (7471): wind direction: 17.05.2019 14:00:00 - 23.05.2019 14:00:00 (CEST)Le Puy, France (7471): visibility: 17.05.2019 14:00:00 - 23.05.2019 14:00:00 (CEST)Le Puy, France (7471): sunshine duration: 17.05.2019 14:00:00 - 23.05.2019 14:00:00 (CEST)Le Puy, France (7471): precipitation: 17.05.2019 14:00:00 - 23.05.2019 14:00:00 (CEST)
Date & Time tt [°C] td [°C] tt 5cm [°C] tt -20cm [°C] tt -100cm [°C] ff [km/h] ff [kn] fx [km/h] fx [kn] dd vv [km] sd [min] rr [mm]
23.05.2019 14:00:00 18,7 4,8 27,4 12,2 9,7 5 3 13 7 E 20 60 0,0
23.05.2019 13:00:00 16,9 3,6 26,9 12,1 9,7 5 3 13 7 ENE 20 60 0,0
23.05.2019 12:00:00 16,1 2,5 25,1 12,2 9,7 4 2 19 10 NE 20 60 0,0
23.05.2019 11:00:00 14,6 4,0 22,8 12,2 9,7 3 2 11 6 N 20 60 0,0
23.05.2019 10:00:00 13,8 5,2 19,1 12,4 9,7 5 3 14 7 E 20 60 0,0
23.05.2019 09:00:00 12,3 6,1 15,1 12,5 9,7 3 1 6 3 E 20 60 0,0
23.05.2019 08:00:00 9,0 5,2 4,8 12,6 9,7 0 0 3 2 N 20 60 0,0
23.05.2019 07:00:00 4,0 2,2 0,8 12,8 9,7 3 2 20 11 WSW 20 23 0,0
23.05.2019 06:00:00 3,0 1,5 0,2 12,9 9,7 4 2 5 3 SSW 20 0 0,0
23.05.2019 05:00:00 4,1 2,3 2,6 13,0 9,7 3 2 10 5 SW 20 0 0,0
23.05.2019 04:00:00 4,8 2,8 3,3 13,1 9,7 6 4 10 6 SW 20 0 0,0
23.05.2019 03:00:00 5,2 3,0 3,4 13,2 9,7 6 3 9 5 SW 20 0 0,0
23.05.2019 02:00:00 6,2 3,4 3,9 13,2 9,6 6 3 10 5 WSW 20 0 0,0
23.05.2019 01:00:00 6,8 3,6 3,9 13,3 9,7 4 2 6 4 W 20 0 0,0
23.05.2019 00:00:00 7,7 4,1 5,2 13,3 9,7 5 3 9 5 WSW 20 0 0,0
22.05.2019 23:00:00 8,7 4,3 5,8 13,3 9,7 6 3 8 5 W 20 0 0,0
22.05.2019 22:00:00 9,8 4,8 7,4 13,2 9,7 5 3 6 4 W 20 0 0,0
22.05.2019 21:00:00 13,5 3,8 9,3 13,0 9,7 5 3 19 10 N 20 10 0,0
22.05.2019 20:00:00 15,0 4,7 13,8 12,9 9,6 8 5 23 12 NNE 20 0 0,0
22.05.2019 19:00:00 16,0 5,6 17,3 12,7 9,7 13 7 29 16 NNE 20 0 0,0
22.05.2019 18:00:00 16,9 5,2 19,7 12,5 9,6 15 8 29 16 NNE 20 10 0,0
22.05.2019 17:00:00 17,5 4,1 23,3 12,2 9,6 10 5 36 19 NNE 20 30 0,0
22.05.2019 16:00:00 17,3 5,2 22,0 12,0 9,6 17 9 31 17 NNE 20 27 0,0
22.05.2019 15:00:00 17,2 5,5 21,0 11,9 9,6 16 8 26 14 NNE 20 27 0,0
22.05.2019 14:00:00 16,9 5,2 21,7 11,7 9,6 15 8 37 20 ENE 20 31 0,0
22.05.2019 13:00:00 15,5 5,4 20,8 11,7 9,6 17 9 32 18 NNE 20 31 0,0
22.05.2019 12:00:00 15,3 4,6 23,8 11,6 9,6 17 9 37 20 NNE 20 53 0,0
22.05.2019 11:00:00 15,1 4,7 25,2 11,7 9,6 18 10 34 18 NNE 20 60 0,0
22.05.2019 10:00:00 13,6 5,0 20,3 11,8 9,6 18 10 30 16 NNE 20 60 0,0
22.05.2019 09:00:00 11,9 6,6 14,3 11,9 9,6 11 6 18 10 N 20 60 0,0
22.05.2019 08:00:00 9,8 6,9 6,6 12,0 9,6 4 2 6 3 NW 20 60 0,0
22.05.2019 07:00:00 6,0 4,6 3,4 12,1 9,6 4 2 18 10 SW 19 27 0,0
22.05.2019 06:00:00 5,9 4,1 2,8 12,2 9,6 4 2 7 4 SW 20 0 0,0
22.05.2019 05:00:00 7,1 4,7 4,1 12,3 9,6 0 0 18 10 N 20 0 0,0
22.05.2019 04:00:00 8,8 5,9 4,0 12,4 9,6 7 4 13 7 WNW 20 0 0,0
22.05.2019 03:00:00 7,2 4,5 4,3 12,4 9,6 3 2 14 8 WNW 20 0 0,0
22.05.2019 02:00:00 9,2 6,5 5,1 12,5 9,6 9 5 18 10 WNW 20 0 0,0
22.05.2019 01:00:00 8,8 5,5 7,4 12,5 9,7 6 4 18 10 W 20 0 0,0
22.05.2019 00:00:00 9,8 6,0 6,7 12,5 9,6 13 7 21 11 NW 20 0 0,0
21.05.2019 23:00:00 10,0 6,7 7,9 12,4 9,6 12 7 16 9 NNW 20 0 0,0
21.05.2019 22:00:00 10,7 7,6 8,5 12,3 9,6 5 3 10 5 NNW 20 0 0,0
21.05.2019 21:00:00 11,8 7,5 11,2 12,2 9,6 9 5 25 14 NNW 20 3 0,0
21.05.2019 20:00:00 13,5 7,0 13,4 12,1 9,6 16 8 27 15 NNE 20 0 0,0
21.05.2019 19:00:00 14,1 7,2 15,2 11,9 9,6 15 8 32 17 NNE 20 8 0,0
21.05.2019 18:00:00 15,3 5,5 19,2 11,7 9,6 19 11 39 21 N 20 30 0,0
21.05.2019 17:00:00 15,1 7,9 17,9 11,6 9,6 19 10 42 23 NNW 20 2 0,0
21.05.2019 16:00:00 16,1 8,3 17,7 11,5 9,6 18 10 41 22 N 20 19 0,0
21.05.2019 15:00:00 14,8 8,3 18,4 11,3 9,6 18 10 38 21 NNE 20 29 0,0
21.05.2019 14:00:00 12,5 9,1 13,3 11,3 9,6 23 12 44 24 NNW 19 12 0,0
21.05.2019 13:00:00 12,1 8,2 13,0 11,1 9,6 19 10 34 18 NNW 20 0 0,0
21.05.2019 12:00:00 13,1 8,4 18,1 11,1 9,6 19 10 29 16 NNW 20 12 0,0
21.05.2019 11:00:00 13,1 8,2 18,6 11,1 9,6 16 9 27 14 N 20 13 0,0
21.05.2019 10:00:00 11,8 8,1 14,1 11,2 9,6 21 11 28 15 N 18 17 0,0
21.05.2019 09:00:00 11,7 8,4 12,0 11,2 9,6 17 9 26 14 NW 16 15 0,0
21.05.2019 08:00:00 10,1 7,9 10,2 11,2 9,6 11 6 18 10 NNW 17 0 0,0
21.05.2019 07:00:00 9,8 7,6 9,2 11,3 9,6 8 5 19 10 NNW 20 0 0,0
21.05.2019 06:00:00 9,5 7,4 9,1 11,3 9,6 9 5 13 7 NNW 16 0 0,0
21.05.2019 05:00:00 9,5 7,1 8,7 11,3 9,6 3 2 16 8 W 17 0 0,0
21.05.2019 04:00:00 9,7 7,3 8,9 11,3 9,6 9 5 16 9 WNW 15 0 0,0
21.05.2019 03:00:00 9,7 7,1 9,1 11,4 9,6 5 3 14 7 WNW 17 0 0,0
21.05.2019 02:00:00 9,6 6,9 9,2 11,4 9,6 10 5 19 11 NW 18 0 0,0
21.05.2019 01:00:00 9,7 7,0 9,4 11,4 9,6 6 4 13 7 WNW 20 0 0,0
21.05.2019 00:00:00 10,0 7,1 9,5 11,4 9,6 5 3 13 7 WNW 20 0 0,0
20.05.2019 23:00:00 10,1 7,0 9,8 11,4 9,6 8 4 16 9 NW 20 0 0,0
20.05.2019 22:00:00 10,3 6,8 9,9 11,3 9,6 12 6 20 11 NW 20 0 0,0
20.05.2019 21:00:00 11,0 5,9 10,9 11,3 9,6 13 7 23 12 WNW 20 7 0,0
20.05.2019 20:00:00 11,5 6,4 11,8 11,2 9,6 13 7 27 15 WNW 20 0 0,0
20.05.2019 19:00:00 12,0 6,9 12,6 11,1 9,6 13 7 23 12 NW 20 0 0,0
20.05.2019 18:00:00 11,9 6,8 12,8 11,1 9,6 18 10 33 18 WNW 20 0 0,0
20.05.2019 17:00:00 12,2 6,5 11,3 11,0 9,6 18 10 37 20 WNW 20 0 0,0
20.05.2019 16:00:00 12,5 6,5 13,8 10,9 9,6 24 13 36 19 NW 20 0 0,0
20.05.2019 15:00:00 12,6 6,0 14,1 10,9 9,6 23 12 41 22 WNW 20 11 0,0
20.05.2019 14:00:00 12,7 6,3 14,1 10,9 9,6 16 9 30 16 WNW 20 5 0,0
20.05.2019 13:00:00 11,8 6,3 13,2 10,9 9,6 17 9 36 20 NW 20 3 0,0
20.05.2019 12:00:00 10,7 6,6 11,8 10,9 9,5 16 9 31 17 NNW 20 0 0,0
20.05.2019 11:00:00 10,6 6,7 10,8 10,9 9,6 15 8 34 18 NW 20 0 0,0
20.05.2019 10:00:00 10,4 6,2 11,6 10,9 9,5 20 11 32 17 NW 20 0 0,0
20.05.2019 09:00:00 10,0 6,7 9,8 11,0 9,6 14 8 24 13 NW 20 0 0,0
20.05.2019 08:00:00 9,1 6,5 9,0 11,0 9,6 12 6 25 13 NW 19 0 0,0
20.05.2019 07:00:00 9,2 6,3 8,6 11,1 9,6 10 5 23 12 NW 19 0 0,0
20.05.2019 06:00:00 8,9 6,3 8,6 11,1 9,6 14 7 23 12 NW 20 0 0,0
20.05.2019 05:00:00 9,0 6,6 8,9 11,1 9,5 13 7 23 13 WNW 16 0 0,0
20.05.2019 04:00:00 9,0 6,4 8,9 11,2 9,6 15 8 32 18 NW 19 0 0,0
20.05.2019 03:00:00 9,1 6,9 8,5 11,2 9,5 18 10 30 16 NW 20 0 0,0
20.05.2019 02:00:00 9,2 6,8 9,1 11,2 9,6 16 9 29 16 WNW 20 0 0,0
20.05.2019 01:00:00 9,3 7,2 8,9 11,2 9,5 9 5 23 13 WNW 20 0 0,0
20.05.2019 00:00:00 9,2 7,0 8,4 11,3 9,6 14 7 26 14 WNW 20 0 0,0
19.05.2019 23:00:00 9,1 7,0 8,5 11,2 9,5 11 6 26 14 NW 19 0 0,2
19.05.2019 22:00:00 9,6 6,5 9,0 11,2 9,6 18 10 30 16 NW 20 0 0,0
19.05.2019 21:00:00 9,6 6,7 9,3 11,1 9,5 15 8 29 16 NW 20 0 0,0
19.05.2019 20:00:00 10,1 7,0 10,5 11,1 9,5 15 8 32 17 NW 20 0 0,0
19.05.2019 19:00:00 10,3 6,8 10,6 11,1 9,5 16 9 29 16 NW 20 0 0,0
19.05.2019 18:00:00 10,5 7,2 10,7 11,0 9,5 12 6 24 13 NW 20 0 0,0
19.05.2019 17:00:00 10,6 7,5 9,8 11,0 9,5 12 6 21 11 NW 20 0 0,2
19.05.2019 16:00:00 10,0 7,2 9,8 11,0 9,5 15 8 24 13 NW 19 0 0,2
19.05.2019 15:00:00 10,0 7,4 9,6 11,0 9,5 12 6 26 14 NW 20 0 0,0
19.05.2019 14:00:00 10,3 7,5 9,8 11,0 9,5 9 5 16 8 NW 20 0 0,6
19.05.2019 13:00:00 9,3 6,7 9,3 11,0 9,5 12 6 23 12 NW 20 0 0,4
19.05.2019 12:00:00 9,4 6,1 9,3 11,0 9,5 14 8 26 14 NW 20 0 0,0
19.05.2019 11:00:00 8,5 6,3 8,7 11,1 9,5 16 9 24 13 WNW 20 0 0,2
19.05.2019 10:00:00 8,0 6,3 7,3 11,1 9,5 8 5 19 10 WNW 20 0 0,4
19.05.2019 09:00:00 7,2 5,7 7,2 11,2 9,5 11 6 19 10 WNW 20 0 0,7
19.05.2019 08:00:00 6,8 5,6 6,5 11,3 9,5 4 2 16 8 WNW 20 0 0,4
19.05.2019 07:00:00 6,6 5,4 6,4 11,4 9,5 8 4 14 7 W 18 0 0,2
19.05.2019 06:00:00 6,6 5,4 6,4 11,4 9,5 0 0 4 2 N 10 0 1,6
19.05.2019 05:00:00 6,7 5,3 6,4 11,5 9,5 0 0 13 7 N 20 0 0,4
19.05.2019 04:00:00 6,9 5,2 6,5 11,5 9,5 8 4 15 8 W 19 0 0,4
19.05.2019 03:00:00 7,1 5,2 6,6 11,5 9,5 9 5 19 10 W 18 0 0,6
19.05.2019 02:00:00 7,1 5,2 6,7 11,5 9,5 7 4 19 10 WNW 20 0 0,4
19.05.2019 01:00:00 7,5 5,3 6,9 11,5 9,5 8 5 24 13 W 19 0 0,8
19.05.2019 00:00:00 8,1 5,0 7,1 11,5 9,5 10 5 18 10 WNW 16 0 0,4
18.05.2019 23:00:00 8,4 5,7 7,6 11,5 9,5 8 4 16 9 W 20 0 0,2
18.05.2019 22:00:00 8,5 5,9 7,7 11,4 9,5 11 6 22 12 W 20 0 0,2
18.05.2019 21:00:00 8,5 5,8 7,8 11,4 9,4 8 4 16 9 W 20 0 0,2
18.05.2019 20:00:00 9,2 5,7 8,9 11,3 9,5 7 4 21 12 W 20 0 0,0
18.05.2019 19:00:00 10,2 5,6 11,7 11,3 9,5 12 6 19 10 WNW 20 0 0,0
18.05.2019 18:00:00 10,5 5,5 12,3 11,2 9,5 9 5 21 11 W 20 0 0,0
18.05.2019 17:00:00 11,2 5,1 13,0 11,1 9,5 9 5 21 12 WNW 20 0 0,0
18.05.2019 16:00:00 11,3 5,0 13,8 11,0 9,4 9 5 28 15 WNW 20 13 0,0
18.05.2019 15:00:00 11,4 5,3 12,3 11,0 9,4 14 7 27 15 W 20 0 0,0
18.05.2019 14:00:00 11,1 4,8 13,5 11,0 9,4 13 7 26 14 WNW 20 20 0,0
18.05.2019 13:00:00 10,2 4,6 11,1 10,9 9,4 16 8 28 15 W 20 0 0,0
18.05.2019 12:00:00 10,3 4,9 11,1 11,0 9,4 10 6 23 13 WNW 20 0 0,0
18.05.2019 11:00:00 9,8 5,8 9,6 11,0 9,4 11 6 22 12 W 20 0 0,0
18.05.2019 10:00:00 9,1 5,8 9,8 11,1 9,4 9 5 17 9 SW 20 0 0,0
18.05.2019 09:00:00 8,1 6,7 7,6 11,1 9,4 0 0 5 3 N 20 0 0,0
18.05.2019 08:00:00 6,6 5,5 6,0 11,2 9,4 0 0 4 2 N 20 0 0,0
18.05.2019 07:00:00 5,7 4,7 4,3 11,3 9,4 0 0 6 3 N 15 0 0,0
18.05.2019 06:00:00 6,1 4,7 5,4 11,4 9,4 0 0 4 2 N 20 0 0,2
18.05.2019 05:00:00 6,3 4,9 5,9 11,4 9,4 0 0 3 2 N 20 0 0,0
18.05.2019 04:00:00 6,5 5,0 6,2 11,4 9,4 3 2 12 7 SSE 20 0 0,0
18.05.2019 03:00:00 6,5 5,0 5,7 11,5 9,4 4 2 8 5 SSE 20 0 0,0
18.05.2019 02:00:00 6,1 4,6 5,8 11,6 9,4 5 3 8 4 SE 20 0 0,0
18.05.2019 01:00:00 6,5 4,8 6,1 11,6 9,4 4 2 7 4 S 20 0 0,0
18.05.2019 00:00:00 6,7 4,9 6,1 11,6 9,4 3 1 8 4 SE 20 0 0,0
17.05.2019 23:00:00 6,9 5,2 6,5 11,7 9,4 3 1 9 5 ESE 20 0 0,0
17.05.2019 22:00:00 7,2 5,2 6,6 11,7 9,4 5 3 16 9 SSE 20 0 0,2
17.05.2019 21:00:00 7,5 6,1 7,4 11,7 9,4 0 0 5 3 N 16 0 0,2
17.05.2019 20:00:00 7,9 6,4 8,0 11,7 9,4 5 3 9 5 ESE 11 0 0,2
17.05.2019 19:00:00 8,4 5,5 8,6 11,7 9,4 0 0 5 3 N 20 0 0,0
17.05.2019 18:00:00 7,9 5,4 8,5 11,7 9,4 2 1 11 6 E 20 0 0,0
17.05.2019 17:00:00 8,0 5,3 9,5 11,8 9,4 5 3 12 7 E 20 0 0,0
17.05.2019 16:00:00 7,2 4,3 7,4 11,8 9,4 3 2 15 8 SE 20 0 0,8
17.05.2019 15:00:00 6,8 3,8 7,1 11,9 9,4 10 5 25 14 S 20 0 1,2
17.05.2019 14:00:00 7,2 4,2 7,3 11,9 9,4 10 5 17 9 S 11 0 1,0

tt = temperature
td = dewpoint
tt 5cm = temperature 5cm
tt -20cm = temperature -20cm
tt -100cm = temperature -100cm
ff = wind speed
fx = gusts
dd = wind direction
vv = visibility
sd = sunshine duration
rr = precipitation

Next stations